createdAt,value
2016-04-08T00:00:38.430Z,0
2016-04-08T00:01:38.729Z,0
2016-04-08T00:02:39.076Z,0
2016-04-08T00:03:39.095Z,0
2016-04-08T00:04:38.598Z,0
2016-04-08T00:05:37.662Z,0
2016-04-08T00:06:39.571Z,0
2016-04-08T00:07:39.371Z,0
2016-04-08T00:08:38.327Z,0
2016-04-08T00:09:38.595Z,0
2016-04-08T00:10:41.332Z,0
2016-04-08T00:11:40.351Z,0
2016-04-08T00:12:39.307Z,0
2016-04-08T00:13:38.907Z,0
2016-04-08T00:14:38.300Z,0
2016-04-08T00:16:40.446Z,0
2016-04-08T00:17:38.465Z,0
2016-04-08T00:18:38.421Z,0
2016-04-08T00:19:39.392Z,0
2016-04-08T00:20:38.254Z,0
2016-04-08T00:21:38.226Z,0
2016-04-08T00:22:38.212Z,0
2016-04-08T00:23:38.231Z,0
2016-04-08T00:24:38.201Z,0
2016-04-08T00:25:38.204Z,0
2016-04-08T00:26:38.176Z,0
2016-04-08T00:27:38.178Z,0
2016-04-08T00:28:38.166Z,0
2016-04-08T00:29:38.214Z,0
2016-04-08T00:30:38.171Z,0
2016-04-08T00:31:38.127Z,0
2016-04-08T00:32:38.144Z,0
2016-04-08T00:33:37.976Z,0
2016-04-08T00:34:37.994Z,0
2016-04-08T00:35:38.106Z,0
2016-04-08T00:36:38.094Z,0
2016-04-08T00:37:38.096Z,0
2016-04-08T00:38:38.068Z,0
2016-04-08T00:39:38.102Z,0
2016-04-08T00:40:38.057Z,0
2016-04-08T00:41:38.044Z,0
2016-04-08T00:42:38.031Z,0
2016-04-08T00:43:38.018Z,0
2016-04-08T00:44:38.037Z,0
2016-04-08T00:45:38.023Z,0
2016-04-08T00:46:37.979Z,0
2016-04-08T00:47:37.998Z,0
2016-04-08T00:48:38.001Z,0
2016-04-08T00:49:37.988Z,0
2016-04-08T00:50:37.959Z,0
2016-04-08T00:51:37.962Z,0
2016-04-08T00:52:37.948Z,0
2016-04-08T00:53:37.779Z,0
2016-04-08T00:54:37.923Z,0
2016-04-08T00:55:37.925Z,0
2016-04-08T00:56:37.913Z,0
2016-04-08T00:57:37.900Z,0
2016-04-08T00:58:37.887Z,0
2016-04-08T00:59:37.889Z,0
2016-04-08T01:00:37.720Z,0
2016-04-08T01:01:37.864Z,0
2016-04-08T01:02:37.866Z,0
2016-04-08T01:03:37.838Z,0
2016-04-08T01:04:37.825Z,0
2016-04-08T01:05:37.827Z,0
2016-04-08T01:06:37.830Z,0
2016-04-08T01:07:37.802Z,0
2016-04-08T01:08:37.804Z,0
2016-04-08T01:09:37.792Z,0
2016-04-08T01:10:37.794Z,0
2016-04-08T01:11:37.766Z,0
2016-04-08T01:12:37.785Z,0
2016-04-08T01:13:37.755Z,0
2016-04-08T01:14:37.727Z,0
2016-04-08T01:15:37.745Z,0
2016-04-08T01:16:37.732Z,0
2016-04-08T01:17:37.719Z,0
2016-04-08T01:18:37.706Z,0
2016-04-08T01:19:37.834Z,0
2016-04-08T01:20:38.492Z,0
2016-04-08T01:21:38.636Z,0
2016-04-08T01:22:52.311Z,0
2016-04-08T01:23:37.845Z,0
2016-04-08T01:24:37.957Z,0
2016-04-08T01:25:40.819Z,0
2016-04-08T01:26:39.931Z,0
2016-04-08T01:27:38.136Z,0
2016-04-08T01:28:38.748Z,0
2016-04-08T01:29:38.236Z,0
2016-04-08T01:30:38.191Z,0
2016-04-08T01:32:37.931Z,0
2016-04-08T01:33:37.747Z,0
2016-04-08T01:34:37.578Z,0
2016-04-08T01:35:38.284Z,0
2016-04-08T01:36:38.239Z,0
2016-04-08T01:37:37.820Z,0
2016-04-08T01:38:38.697Z,0
2016-04-08T01:39:37.700Z,0
2016-04-08T01:40:37.610Z,0
2016-04-08T01:41:37.502Z,0
2016-04-08T01:42:37.474Z,0
2016-04-08T01:43:37.476Z,0
2016-04-08T01:44:37.495Z,0
2016-04-08T01:45:37.435Z,0
2016-04-08T01:46:37.438Z,0
2016-04-08T01:47:37.441Z,0
2016-04-08T01:48:37.412Z,0
2016-04-08T01:49:37.399Z,0
2016-04-08T01:50:37.417Z,0
2016-04-08T01:51:37.404Z,0
2016-04-08T01:52:37.407Z,0
2016-04-08T01:53:37.362Z,0
2016-04-08T01:54:37.365Z,0
2016-04-08T01:55:37.336Z,0
2016-04-08T01:56:37.370Z,0
2016-04-08T01:57:37.342Z,0
2016-04-08T01:58:37.329Z,0
2016-04-08T01:59:37.301Z,0
2016-04-08T02:00:37.319Z,0
2016-04-08T02:01:37.322Z,0
2016-04-08T02:02:37.294Z,0
2016-04-08T02:03:37.281Z,0
2016-04-08T02:04:37.267Z,0
2016-04-08T02:05:37.255Z,0
2016-04-08T02:06:37.241Z,0
2016-04-08T02:07:37.244Z,0
2016-04-08T02:08:37.245Z,0
2016-04-08T02:09:37.201Z,0
2016-04-08T02:10:37.220Z,0
2016-04-08T02:11:37.206Z,0
2016-04-08T02:12:37.194Z,0
2016-04-08T02:13:37.196Z,0
2016-04-08T02:14:37.199Z,0
2016-04-08T02:15:37.170Z,0
2016-04-08T02:16:37.172Z,0
2016-04-08T02:17:37.144Z,0
2016-04-08T02:18:37.146Z,0
2016-04-08T02:19:37.180Z,0
2016-04-08T02:20:37.136Z,0
2016-04-08T02:21:37.107Z,0
2016-04-08T02:22:37.126Z,0
2016-04-08T02:23:37.098Z,0
2016-04-08T02:24:37.116Z,0
2016-04-08T02:25:37.088Z,0
2016-04-08T02:26:37.091Z,0
2016-04-08T02:27:37.062Z,0
2016-04-08T02:28:37.065Z,0
2016-04-08T02:29:37.035Z,0
2016-04-08T02:30:37.023Z,0
2016-04-08T02:31:37.040Z,0
2016-04-08T02:32:37.012Z,0
2016-04-08T02:33:36.843Z,0
2016-04-08T02:34:37.003Z,0
2016-04-08T02:35:37.021Z,0
2016-04-08T02:36:36.992Z,0
2016-04-08T02:37:36.964Z,0
2016-04-08T02:38:37.014Z,0
2016-04-08T02:39:38.203Z,0
2016-04-08T02:40:36.956Z,0
2016-04-08T02:41:36.942Z,0
2016-04-08T02:42:37.524Z,0
2016-04-08T02:43:36.902Z,0
2016-04-08T02:45:37.922Z,0
2016-04-08T02:46:36.894Z,0
2016-04-08T02:47:36.881Z,0
2016-04-08T02:48:52.540Z,0
2016-04-08T02:49:37.761Z,0
2016-04-08T02:50:36.858Z,0
2016-04-08T02:51:37.533Z,0
2016-04-08T02:52:37.629Z,0
2016-04-08T02:53:36.944Z,0
2016-04-08T02:54:36.822Z,0
2016-04-08T02:55:36.824Z,0
2016-04-08T02:56:38.265Z,0
2016-04-08T02:57:37.220Z,0
2016-04-08T02:58:37.113Z,0
2016-04-08T02:59:37.382Z,0
2016-04-08T03:00:36.791Z,0
2016-04-08T03:01:36.747Z,0
2016-04-08T03:02:36.749Z,0
2016-04-08T03:03:36.737Z,0
2016-04-08T03:04:36.739Z,0
2016-04-08T03:05:36.726Z,0
2016-04-08T03:06:36.698Z,0
2016-04-08T03:07:36.747Z,0
2016-04-08T03:08:36.781Z,0
2016-04-08T03:09:36.674Z,0
2016-04-08T03:10:36.661Z,0
2016-04-08T03:11:36.664Z,0
2016-04-08T03:12:36.635Z,0
2016-04-08T03:13:36.576Z,0
2016-04-08T03:14:36.641Z,0
2016-04-08T03:15:36.628Z,0
2016-04-08T03:16:36.616Z,0
2016-04-08T03:17:36.633Z,0
2016-04-08T03:18:36.621Z,0
2016-04-08T03:19:36.577Z,0
2016-04-08T03:20:36.579Z,0
2016-04-08T03:21:36.566Z,0
2016-04-08T03:22:36.553Z,0
2016-04-08T03:23:36.588Z,0
2016-04-08T03:24:36.544Z,0
2016-04-08T03:25:36.530Z,0
2016-04-08T03:26:36.518Z,0
2016-04-08T03:27:36.521Z,0
2016-04-08T03:28:36.585Z,0
2016-04-08T03:29:36.510Z,0
2016-04-08T03:30:36.481Z,0
2016-04-08T03:31:36.484Z,0
2016-04-08T03:32:36.486Z,0
2016-04-08T03:33:36.332Z,0
2016-04-08T03:34:36.493Z,0
2016-04-08T03:35:36.525Z,0
2016-04-08T03:36:36.541Z,0
2016-04-08T03:37:36.571Z,0
2016-04-08T03:38:36.634Z,0
2016-04-08T03:39:36.627Z,0
2016-04-08T03:40:36.645Z,0
2016-04-08T03:41:36.648Z,0
2016-04-08T03:42:36.667Z,0
2016-04-08T03:43:36.950Z,0
2016-04-08T03:44:36.664Z,0
2016-04-08T03:45:36.657Z,0
2016-04-08T03:46:36.664Z,4
2016-04-08T03:47:36.656Z,4
2016-04-08T03:48:36.633Z,4
2016-04-08T03:49:36.623Z,0
2016-04-08T03:50:36.644Z,4
2016-04-08T03:51:36.633Z,4
2016-04-08T03:52:36.606Z,4
2016-04-08T03:53:36.595Z,4
2016-04-08T03:54:36.615Z,4
2016-04-08T03:55:36.571Z,4
2016-04-08T03:56:36.590Z,8
2016-04-08T03:57:36.578Z,12
2016-04-08T03:58:37.128Z,12
2016-04-08T03:59:37.006Z,16
2016-04-08T04:00:36.556Z,16
2016-04-08T04:01:37.435Z,20
2016-04-08T04:02:36.516Z,24
2016-04-08T04:03:37.519Z,28
2016-04-08T04:04:36.522Z,32
2016-04-08T04:05:36.915Z,40
2016-04-08T04:06:37.168Z,44
2016-04-08T04:07:38.154Z,48
2016-04-08T04:08:37.360Z,56
2016-04-08T04:09:37.785Z,68
2016-04-08T04:11:37.228Z,92
2016-04-08T04:12:36.949Z,104
2016-04-08T04:13:37.826Z,116
2016-04-08T04:14:37.424Z,132
2016-04-08T04:15:36.395Z,148
2016-04-08T04:16:37.492Z,164
2016-04-08T04:17:37.088Z,196
2016-04-08T04:18:37.043Z,200
2016-04-08T04:19:36.343Z,220
2016-04-08T04:20:36.377Z,240
2016-04-08T04:21:36.333Z,264
2016-04-08T04:22:36.351Z,288
2016-04-08T04:23:36.339Z,320
2016-04-08T04:24:36.341Z,352
2016-04-08T04:25:36.297Z,388
2016-04-08T04:26:36.299Z,424
2016-04-08T04:27:36.302Z,460
2016-04-08T04:28:36.305Z,496
2016-04-08T04:29:36.277Z,540
2016-04-08T04:30:36.264Z,588
2016-04-08T04:31:36.250Z,644
2016-04-08T04:32:36.222Z,700
2016-04-08T04:33:36.240Z,768
2016-04-08T04:34:36.227Z,836
2016-04-08T04:35:36.214Z,900
2016-04-08T04:36:36.201Z,968
2016-04-08T04:37:36.219Z,1028
2016-04-08T04:38:36.191Z,1084
2016-04-08T04:39:36.163Z,1116
2016-04-08T04:40:36.182Z,1164
2016-04-08T04:41:36.137Z,1268
2016-04-08T04:42:36.140Z,1396
2016-04-08T04:43:36.142Z,1484
2016-04-08T04:44:36.145Z,1536
2016-04-08T04:45:36.132Z,1608
2016-04-08T04:46:36.118Z,1720
2016-04-08T04:47:36.121Z,1856
2016-04-08T04:48:36.092Z,2020
2016-04-08T04:49:36.095Z,2236
2016-04-08T04:50:36.098Z,2404
2016-04-08T04:51:36.086Z,2532
2016-04-08T04:52:35.322Z,2640
2016-04-08T04:53:36.045Z,2728
2016-04-08T04:54:36.031Z,2816
2016-04-08T04:55:36.050Z,2928
2016-04-08T04:56:36.021Z,3052
2016-04-08T04:57:36.039Z,3216
2016-04-08T04:58:36.011Z,3348
2016-04-08T04:59:35.997Z,3440
2016-04-08T05:00:35.985Z,3460
2016-04-08T05:01:35.988Z,3520
2016-04-08T05:02:35.974Z,3640
2016-04-08T05:03:35.961Z,3836
2016-04-08T05:04:35.932Z,4184
2016-04-08T05:05:35.951Z,4260
2016-04-08T05:06:35.922Z,4440
2016-04-08T05:07:35.957Z,4364
2016-04-08T05:08:35.913Z,4272
2016-04-08T05:09:35.915Z,4344
2016-04-08T05:10:35.902Z,4568
2016-04-08T05:11:35.905Z,4480
2016-04-08T05:12:35.907Z,4864
2016-04-08T05:13:35.910Z,4248
2016-04-08T05:14:35.726Z,4284
2016-04-08T05:15:35.868Z,4380
2016-04-08T05:16:35.872Z,4452
2016-04-08T05:17:37.546Z,4512
2016-04-08T05:18:35.862Z,4580
2016-04-08T05:19:50.177Z,4816
2016-04-08T05:20:35.835Z,6268
2016-04-08T05:21:36.104Z,5740
2016-04-08T05:22:38.419Z,4852
2016-04-08T05:23:36.953Z,4372
2016-04-08T05:24:37.393Z,4388
2016-04-08T05:25:37.020Z,4356
2016-04-08T05:26:36.523Z,4676
2016-04-08T05:27:37.244Z,5192
2016-04-08T05:28:35.966Z,5696
2016-04-08T05:29:36.266Z,6132
2016-04-08T05:30:35.769Z,6536
2016-04-08T05:31:36.303Z,6776
2016-04-08T05:32:36.209Z,6896
2016-04-08T05:33:35.930Z,7132
2016-04-08T05:34:37.120Z,7264
2016-04-08T05:35:35.733Z,7212
2016-04-08T05:36:35.736Z,7384
2016-04-08T05:37:36.285Z,7952
2016-04-08T05:38:36.163Z,11692
2016-04-08T05:39:35.696Z,8068
2016-04-08T05:40:35.683Z,8428
2016-04-08T05:41:35.686Z,10164
2016-04-08T05:42:35.688Z,10288
2016-04-08T05:43:35.754Z,7328
2016-04-08T05:44:35.678Z,7012
2016-04-08T05:45:35.649Z,9388
2016-04-08T05:46:35.652Z,10664
2016-04-08T05:47:35.670Z,12732
2016-04-08T05:48:35.643Z,14880
2016-04-08T05:49:35.645Z,15328
2016-04-08T05:50:35.632Z,15328
2016-04-08T05:51:35.666Z,15328
2016-04-08T05:52:35.622Z,14688
2016-04-08T05:53:35.640Z,17088
2016-04-08T05:54:35.611Z,16416
2016-04-08T05:55:35.630Z,16768
2016-04-08T05:56:35.617Z,16000
2016-04-08T05:57:35.635Z,15712
2016-04-08T05:58:35.638Z,15264
2016-04-08T05:59:35.641Z,14720
2016-04-08T06:00:35.612Z,14464
2016-04-08T06:01:35.600Z,16192
2016-04-08T06:02:35.602Z,19488
2016-04-08T06:03:35.620Z,20672
2016-04-08T06:04:35.608Z,19872
2016-04-08T06:05:35.610Z,15168
2016-04-08T06:06:35.613Z,19232
2016-04-08T06:07:35.616Z,14560
2016-04-08T06:08:35.618Z,17728
2016-04-08T06:09:35.605Z,15712
2016-04-08T06:10:35.591Z,13204
2016-04-08T06:11:35.626Z,18144
2016-04-08T06:12:35.613Z,20480
2016-04-08T06:13:35.616Z,19744
2016-04-08T06:14:35.618Z,19712
2016-04-08T06:15:35.606Z,18208
2016-04-08T06:16:35.640Z,17024
2016-04-08T06:17:35.658Z,15744
2016-04-08T06:18:35.629Z,16992
2016-04-08T06:19:35.632Z,17760
2016-04-08T06:20:35.651Z,16800
2016-04-08T06:21:35.637Z,17856
2016-04-08T06:22:35.656Z,19712
2016-04-08T06:23:35.659Z,21088
2016-04-08T06:24:35.629Z,20896
2016-04-08T06:25:35.664Z,20992
2016-04-08T06:26:35.650Z,19808
2016-04-08T06:27:35.669Z,22208
2016-04-08T06:28:35.687Z,21728
2016-04-08T06:29:35.674Z,23488
2016-04-08T06:30:35.661Z,23680
2016-04-08T06:31:35.664Z,23648
2016-04-08T06:32:35.683Z,24544
2016-04-08T06:33:35.701Z,25664
2016-04-08T06:34:35.704Z,26272
2016-04-08T06:35:35.691Z,26944
2016-04-08T06:36:36.866Z,26336
2016-04-08T06:37:50.356Z,26624
2016-04-08T06:38:35.825Z,28032
2016-04-08T06:39:36.186Z,28416
2016-04-08T06:40:35.845Z,26912
2016-04-08T06:41:37.926Z,25568
2016-04-08T06:42:35.741Z,28096
2016-04-08T06:43:36.181Z,26976
2016-04-08T06:44:36.028Z,28704
2016-04-08T06:45:36.983Z,28928
2016-04-08T06:46:36.955Z,29184
2016-04-08T06:47:35.802Z,28864
2016-04-08T06:48:35.820Z,30080
2016-04-08T06:49:36.447Z,29664
2016-04-08T06:50:36.029Z,27488
2016-04-08T06:51:36.124Z,27488
2016-04-08T06:52:35.690Z,33632
2016-04-08T06:53:36.567Z,32160
2016-04-08T06:54:36.585Z,33792
2016-04-08T06:55:36.276Z,34336
2016-04-08T06:56:35.888Z,36736
2016-04-08T06:57:36.047Z,38400
2016-04-08T06:58:36.081Z,36192
2016-04-08T06:59:35.896Z,32064
2016-04-08T07:00:35.904Z,32800
2016-04-08T07:01:35.937Z,30912
2016-04-08T07:02:35.956Z,24576
2016-04-08T07:03:35.989Z,27584
2016-04-08T07:04:35.961Z,32928
2016-04-08T07:05:35.822Z,32768
2016-04-08T07:06:35.982Z,33824
2016-04-08T07:07:35.844Z,34688
2016-04-08T07:08:36.036Z,32640
2016-04-08T07:09:36.022Z,29632
2016-04-08T07:10:36.042Z,32736
2016-04-08T07:11:36.059Z,33920
2016-04-08T07:12:36.047Z,36736
2016-04-08T07:13:36.064Z,38976
2016-04-08T07:14:36.084Z,38592
2016-04-08T07:15:36.101Z,34240
2016-04-08T07:16:36.104Z,34560
2016-04-08T07:17:36.325Z,40256
2016-04-08T07:18:36.141Z,42336
2016-04-08T07:19:36.159Z,40256
2016-04-08T07:20:36.130Z,40128
2016-04-08T07:21:37.586Z,39584
2016-04-08T07:22:36.166Z,39744
2016-04-08T07:23:36.186Z,47232
2016-04-08T07:24:36.204Z,43168
2016-04-08T07:25:36.238Z,44960
2016-04-08T07:26:36.210Z,45856
2016-04-08T07:27:36.243Z,44704
2016-04-08T07:28:36.261Z,51904
2016-04-08T07:29:36.888Z,49696
2016-04-08T07:30:36.283Z,59200
2016-04-08T07:31:36.301Z,62464
2016-04-08T07:32:36.287Z,63136
2016-04-08T07:33:36.337Z,64416
2016-04-08T07:34:36.340Z,61312
2016-04-08T07:35:36.359Z,61920
2016-04-08T07:36:36.345Z,67264
2016-04-08T07:37:36.379Z,71136
2016-04-08T07:38:36.382Z,60640
2016-04-08T07:39:36.370Z,53760
2016-04-08T07:40:36.434Z,55808
2016-04-08T07:41:36.421Z,63552
2016-04-08T07:42:36.440Z,56704
2016-04-08T07:43:36.443Z,48512
2016-04-08T07:44:36.398Z,60096
2016-04-08T07:45:36.525Z,44544
2016-04-08T07:46:36.497Z,28992
2016-04-08T07:47:36.516Z,47392
2016-04-08T07:48:36.378Z,56128
2016-04-08T07:49:37.178Z,54400
2016-04-08T07:50:36.571Z,70496
2016-04-08T07:51:36.573Z,65280
2016-04-08T07:52:36.591Z,50464
2016-04-08T07:53:36.611Z,46752
2016-04-08T07:54:36.722Z,43776
2016-04-08T07:55:36.647Z,36448
2016-04-08T07:56:36.649Z,45568
2016-04-08T07:57:37.683Z,51040
2016-04-08T07:58:36.686Z,47744
2016-04-08T07:59:36.766Z,45696
2016-04-08T08:00:37.660Z,47456
2016-04-08T08:01:38.366Z,50144
2016-04-08T08:02:36.837Z,51776
2016-04-08T08:03:37.746Z,53760
2016-04-08T08:04:51.592Z,53376
2016-04-08T08:05:37.783Z,48032
2016-04-08T08:06:51.879Z,47328
2016-04-08T08:07:38.101Z,51776
2016-04-08T08:08:37.384Z,52864
2016-04-08T08:10:38.812Z,51168
2016-04-08T08:11:37.767Z,46656
2016-04-08T08:12:36.959Z,47872
2016-04-08T08:13:37.054Z,51040
2016-04-08T08:14:37.135Z,53248
2016-04-08T08:15:37.403Z,56608
2016-04-08T08:16:37.562Z,54720
2016-04-08T08:17:36.940Z,52448
2016-04-08T08:18:37.083Z,53120
2016-04-08T08:19:37.289Z,50848
2016-04-08T08:20:36.995Z,44864
2016-04-08T08:21:36.998Z,52672
2016-04-08T08:22:37.000Z,43328
2016-04-08T08:23:37.034Z,17120
2016-04-08T08:24:37.022Z,6292
2016-04-08T08:25:37.055Z,6240
2016-04-08T08:26:37.058Z,6240
2016-04-08T08:27:37.077Z,6240
2016-04-08T08:28:37.064Z,6260
2016-04-08T08:29:37.144Z,6296
2016-04-08T08:30:37.084Z,6296
2016-04-08T08:31:37.088Z,6284
2016-04-08T08:32:37.121Z,6292
2016-04-08T08:33:37.093Z,6276
2016-04-08T08:34:37.127Z,6244
2016-04-08T08:35:37.129Z,6204
2016-04-08T08:36:37.148Z,6208
2016-04-08T08:37:37.151Z,6220
2016-04-08T08:38:37.137Z,6212
2016-04-08T08:39:37.156Z,6192
2016-04-08T08:40:37.142Z,6204
2016-04-08T08:41:37.504Z,6228
2016-04-08T08:42:37.179Z,6232
2016-04-08T08:43:37.181Z,6244
2016-04-08T08:44:37.169Z,6236
2016-04-08T08:45:37.172Z,6168
2016-04-08T08:46:37.221Z,6060
2016-04-08T08:47:37.458Z,6020
2016-04-08T08:48:37.180Z,6016
2016-04-08T08:49:37.183Z,6008
2016-04-08T08:50:37.185Z,6068
2016-04-08T08:51:37.188Z,6116
2016-04-08T08:52:37.174Z,6068
2016-04-08T08:53:37.194Z,6084
2016-04-08T08:54:37.196Z,6116
2016-04-08T08:55:37.199Z,6160
2016-04-08T08:56:37.186Z,6228
2016-04-08T08:57:37.204Z,6276
2016-04-08T08:58:37.300Z,6252
2016-04-08T08:59:37.210Z,6268
2016-04-08T09:00:37.196Z,6316
2016-04-08T09:01:37.215Z,6352
2016-04-08T09:02:37.201Z,6412
2016-04-08T09:03:37.221Z,6508
2016-04-08T09:04:37.191Z,6628
2016-04-08T09:05:37.210Z,6616
2016-04-08T09:06:37.213Z,6604
2016-04-08T09:07:37.215Z,6608
2016-04-08T09:08:37.187Z,6544
2016-04-08T09:09:37.204Z,6532
2016-04-08T09:10:37.208Z,6468
2016-04-08T09:11:37.179Z,6352
2016-04-08T09:12:37.181Z,6368
2016-04-08T09:14:05.578Z,6476
2016-04-08T09:14:38.390Z,6488
2016-04-08T09:15:38.174Z,6460
2016-04-08T09:16:37.646Z,6472
2016-04-08T09:17:38.179Z,6456
2016-04-08T09:18:37.181Z,6412
2016-04-08T09:19:37.997Z,6360
2016-04-08T09:20:38.656Z,6340
2016-04-08T09:21:38.659Z,6364
2016-04-08T09:22:38.177Z,6380
2016-04-08T09:23:38.336Z,6520
2016-04-08T09:24:52.105Z,6536
2016-04-08T09:25:37.200Z,6540
2016-04-08T09:26:37.236Z,6544
2016-04-08T09:27:37.816Z,6576
2016-04-08T09:28:38.771Z,6572
2016-04-08T09:29:39.509Z,6544
2016-04-08T09:30:38.121Z,6600
2016-04-08T09:31:37.186Z,6680
2016-04-08T09:32:37.204Z,6936
2016-04-08T09:33:37.191Z,7052
2016-04-08T09:34:37.194Z,7172
2016-04-08T09:35:37.166Z,7844
2016-04-08T09:36:37.169Z,7960
2016-04-08T09:37:37.187Z,7072
2016-04-08T09:38:37.204Z,6756
2016-04-08T09:39:37.207Z,6692
2016-04-08T09:40:37.179Z,6684
2016-04-08T09:41:37.197Z,6676
2016-04-08T09:42:37.168Z,6556
2016-04-08T09:43:37.203Z,6512
2016-04-08T09:44:37.189Z,6692
2016-04-08T09:45:37.192Z,6780
2016-04-08T09:46:37.195Z,6708
2016-04-08T09:47:37.198Z,6916
2016-04-08T09:48:37.169Z,7272
2016-04-08T09:49:37.203Z,7092
2016-04-08T09:50:37.472Z,6884
2016-04-08T09:51:37.161Z,6804
2016-04-08T09:52:37.180Z,6816
2016-04-08T09:53:37.167Z,6968
2016-04-08T09:54:37.185Z,6988
2016-04-08T09:55:37.189Z,7088
2016-04-08T09:56:37.175Z,7208
2016-04-08T09:57:37.181Z,7032
2016-04-08T09:58:37.168Z,6900
2016-04-08T09:59:37.203Z,7312
2016-04-08T10:00:37.174Z,7800
2016-04-08T10:01:37.177Z,7480
2016-04-08T10:02:37.164Z,7680
2016-04-08T10:03:37.182Z,7780
2016-04-08T10:04:37.592Z,7588
2016-04-08T10:05:37.172Z,7272
2016-04-08T10:06:37.159Z,7168
2016-04-08T10:07:37.177Z,7048
2016-04-08T10:08:37.195Z,7148
2016-04-08T10:09:37.151Z,7456
2016-04-08T10:10:40.763Z,7208
2016-04-08T10:11:37.157Z,6952
2016-04-08T10:12:37.191Z,7196
2016-04-08T10:13:37.146Z,7360
2016-04-08T10:14:37.164Z,8488
2016-04-08T10:15:37.183Z,9468
2016-04-08T10:16:37.155Z,9500
2016-04-08T10:17:37.188Z,9092
2016-04-08T10:18:37.160Z,8264
2016-04-08T10:19:37.178Z,7624
2016-04-08T10:20:37.165Z,7108
2016-04-08T10:21:37.169Z,6896
2016-04-08T10:22:37.155Z,6728
2016-04-08T10:23:37.188Z,6600
2016-04-08T10:24:37.177Z,6592
2016-04-08T10:25:37.148Z,6528
2016-04-08T10:26:37.151Z,6468
2016-04-08T10:27:37.153Z,6464
2016-04-08T10:28:37.171Z,6448
2016-04-08T10:29:37.159Z,6460
2016-04-08T10:30:37.162Z,6492
2016-04-08T10:31:37.132Z,6464
2016-04-08T10:32:52.244Z,6608
2016-04-08T10:33:51.340Z,6720
2016-04-08T10:34:37.140Z,6668
2016-04-08T10:35:37.706Z,6544
2016-04-08T10:36:37.817Z,6440
2016-04-08T10:37:37.414Z,6532
2016-04-08T10:38:37.651Z,6764
2016-04-08T10:39:37.982Z,7124
2016-04-08T10:40:37.656Z,7472
2016-04-08T10:41:37.144Z,7640
2016-04-08T10:42:52.911Z,7608
2016-04-08T10:43:37.993Z,7672
2016-04-08T10:44:37.589Z,7696
2016-04-08T10:45:37.498Z,7832
2016-04-08T10:46:37.313Z,8292
2016-04-08T10:47:38.738Z,8524
2016-04-08T10:48:39.022Z,8216
2016-04-08T10:49:37.244Z,8200
2016-04-08T10:50:37.918Z,8532
2016-04-08T10:51:38.107Z,8928
2016-04-08T10:52:37.564Z,8752
2016-04-08T10:53:37.519Z,8404
2016-04-08T10:54:37.132Z,8176
2016-04-08T10:55:37.149Z,7956
2016-04-08T10:56:37.152Z,7928
2016-04-08T10:57:37.171Z,8176
2016-04-08T10:58:37.143Z,8536
2016-04-08T10:59:37.146Z,7496
2016-04-08T11:00:37.129Z,7864
2016-04-08T11:01:37.163Z,7960
2016-04-08T11:02:37.151Z,7852
2016-04-08T11:03:37.153Z,7724
2016-04-08T11:04:37.155Z,7564
2016-04-08T11:05:36.987Z,7404
2016-04-08T11:06:37.130Z,7224
2016-04-08T11:07:37.133Z,7060
2016-04-08T11:08:37.150Z,7324
2016-04-08T11:09:37.153Z,7708
2016-04-08T11:10:37.125Z,7968
2016-04-08T11:11:37.159Z,7928
2016-04-08T11:12:37.161Z,7836
2016-04-08T11:13:37.164Z,7664
2016-04-08T11:14:37.135Z,7340
2016-04-08T11:15:37.154Z,6976
2016-04-08T11:16:37.157Z,6712
2016-04-08T11:17:37.160Z,7144
2016-04-08T11:18:37.163Z,8008
2016-04-08T11:19:37.149Z,8912
2016-04-08T11:20:37.152Z,9568
2016-04-08T11:21:37.171Z,10636
2016-04-08T11:22:37.141Z,10464
2016-04-08T11:23:37.175Z,10200
2016-04-08T11:24:37.163Z,9432
2016-04-08T11:25:37.165Z,8776
2016-04-08T11:26:37.183Z,8304
2016-04-08T11:27:37.154Z,7948
2016-04-08T11:28:37.142Z,7668
2016-04-08T11:29:37.160Z,6988
2016-04-08T11:30:37.163Z,7164
2016-04-08T11:31:37.150Z,7652
2016-04-08T11:32:37.168Z,7680
2016-04-08T11:33:37.170Z,8348
2016-04-08T11:34:37.159Z,9112
2016-04-08T11:35:37.176Z,9252
2016-04-08T11:36:37.179Z,9312
2016-04-08T11:37:37.167Z,10268
2016-04-08T11:38:37.169Z,10096
2016-04-08T11:39:37.172Z,9556
2016-04-08T11:40:37.175Z,8408
2016-04-08T11:41:37.192Z,7664
2016-04-08T11:42:37.211Z,8216
2016-04-08T11:43:37.167Z,8468
2016-04-08T11:44:37.154Z,8112
2016-04-08T11:45:37.171Z,7964
2016-04-08T11:46:37.174Z,7612
2016-04-08T11:47:37.194Z,7604
2016-04-08T11:48:37.180Z,7704
2016-04-08T11:49:37.183Z,7776
2016-04-08T11:50:37.185Z,7832
2016-04-08T11:51:38.485Z,8020
2016-04-08T11:52:37.238Z,8044
2016-04-08T11:53:38.429Z,7760
2016-04-08T11:54:37.196Z,7792
2016-04-08T11:55:37.183Z,7908
2016-04-08T11:56:37.546Z,7824
2016-04-08T11:57:38.782Z,7744
2016-04-08T11:58:37.207Z,7604
2016-04-08T11:59:38.632Z,7476
2016-04-08T12:00:37.556Z,7328
2016-04-08T12:01:37.887Z,7188
2016-04-08T12:02:38.374Z,7044
2016-04-08T12:03:37.533Z,6880
2016-04-08T12:04:37.379Z,6552
2016-04-08T12:05:37.444Z,6572
2016-04-08T12:06:38.995Z,6940
2016-04-08T12:07:37.966Z,7428
2016-04-08T12:08:38.678Z,7468
2016-04-08T12:09:37.212Z,7452
2016-04-08T12:10:37.729Z,7240
2016-04-08T12:11:37.279Z,7100
2016-04-08T12:12:37.204Z,7032
2016-04-08T12:13:37.206Z,6972
2016-04-08T12:14:37.209Z,7036
2016-04-08T12:15:37.243Z,7168
2016-04-08T12:16:37.214Z,7580
2016-04-08T12:17:37.248Z,7544
2016-04-08T12:18:37.220Z,7472
2016-04-08T12:19:37.238Z,7344
2016-04-08T12:20:37.210Z,7212
2016-04-08T12:21:37.243Z,7112
2016-04-08T12:22:37.215Z,7040
2016-04-08T12:23:37.249Z,6932
2016-04-08T12:24:37.235Z,6800
2016-04-08T12:25:37.238Z,6748
2016-04-08T12:26:37.226Z,7160
2016-04-08T12:27:37.228Z,7808
2016-04-08T12:28:37.231Z,7572
2016-04-08T12:29:37.234Z,7120
2016-04-08T12:30:37.298Z,6820
2016-04-08T12:31:37.254Z,6596
2016-04-08T12:32:37.226Z,6496
2016-04-08T12:33:37.245Z,6396
2016-04-08T12:34:37.247Z,6396
2016-04-08T12:35:37.250Z,6360
2016-04-08T12:36:37.237Z,6252
2016-04-08T12:37:37.239Z,6224
2016-04-08T12:38:37.242Z,6288
2016-04-08T12:39:37.261Z,6944
2016-04-08T12:40:37.247Z,7688
2016-04-08T12:41:37.291Z,7640
2016-04-08T12:42:37.318Z,7416
2016-04-08T12:43:37.362Z,7404
2016-04-08T12:44:37.421Z,7580
2016-04-08T12:45:37.667Z,7256
2016-04-08T12:46:37.482Z,7004
2016-04-08T12:47:37.483Z,7376
2016-04-08T12:48:37.516Z,8872
2016-04-08T12:49:37.533Z,10764
2016-04-08T12:50:37.520Z,11964
2016-04-08T12:51:37.543Z,11916
2016-04-08T12:52:37.520Z,11692
2016-04-08T12:53:37.544Z,11204
2016-04-08T12:54:37.552Z,10284
2016-04-08T12:55:37.560Z,9756
2016-04-08T12:56:37.565Z,9300
2016-04-08T12:57:37.553Z,8876
2016-04-08T12:58:37.589Z,8256
2016-04-08T12:59:37.406Z,7804
2016-04-08T13:00:37.567Z,8000
2016-04-08T13:01:37.586Z,8432
2016-04-08T13:02:37.621Z,9084
2016-04-08T13:03:37.577Z,9928
2016-04-08T13:04:37.582Z,10180
2016-04-08T13:05:37.584Z,10204
2016-04-08T13:06:37.587Z,10032
2016-04-08T13:07:37.590Z,9492
2016-04-08T13:08:37.592Z,8904
2016-04-08T13:09:37.596Z,8476
2016-04-08T13:10:39.098Z,8348
2016-04-08T13:11:37.726Z,8472
2016-04-08T13:12:37.979Z,8520
2016-04-08T13:13:38.481Z,8440
2016-04-08T13:14:38.093Z,8296
2016-04-08T13:15:38.237Z,8320
2016-04-08T13:16:40.318Z,8848
2016-04-08T13:17:37.617Z,9668
2016-04-08T13:18:38.978Z,10364
2016-04-08T13:19:37.607Z,10932
2016-04-08T13:21:51.784Z,11116
2016-04-08T13:22:38.287Z,11136
2016-04-08T13:23:37.914Z,10584
2016-04-08T13:24:38.292Z,9584
2016-04-08T13:25:39.905Z,8536
2016-04-08T13:26:37.891Z,7852
2016-04-08T13:27:38.863Z,7488
2016-04-08T13:28:38.724Z,7600
2016-04-08T13:29:38.290Z,8124
2016-04-08T13:30:38.308Z,8568
2016-04-08T13:31:38.483Z,8404
2016-04-08T13:32:37.611Z,9160
2016-04-08T13:33:37.629Z,9400
2016-04-08T13:34:37.600Z,10692
2016-04-08T13:35:37.604Z,10096
2016-04-08T13:36:37.621Z,10240
2016-04-08T13:37:37.639Z,10612
2016-04-08T13:38:37.626Z,10376
2016-04-08T13:39:37.629Z,10516
2016-04-08T13:40:37.632Z,10016
2016-04-08T13:41:37.635Z,9348
2016-04-08T13:42:37.637Z,7952
2016-04-08T13:43:37.640Z,7532